Time,TemperatureF,DewpointF,PressureIn,WindDirection,WindDirectionDegrees,WindSpeedMPH,WindSpeedGustMPH,Humidity,HourlyPrecipIn,Conditions,Clouds,dailyrainin,SoftwareType,DateUTC
2013-05-29 00:09:00,67.1,65.0,29.87,NW,307,1.0,7.0,92,0.15,,,0.01,weatherlink.com 1.10,2013-05-29 04:09:00,
2013-05-29 00:24:00,65.6,63.0,29.85,West,269,0.0,5.0,91,0.20,,,0.06,weatherlink.com 1.10,2013-05-29 04:24:00,
2013-05-29 00:39:00,64.5,63.0,29.83,NNW,337,0.0,1.0,94,0.20,,,0.07,weatherlink.com 1.10,2013-05-29 04:39:00,
2013-05-29 00:54:00,64.0,63.0,29.84,NNW,338,0.0,0.0,95,0.10,,,0.07,weatherlink.com 1.10,2013-05-29 04:54:00,
2013-05-29 01:09:00,63.7,63.0,29.85,ESE,110,0.0,1.0,96,0.05,,,0.07,weatherlink.com 1.10,2013-05-29 05:09:00,
2013-05-29 01:24:00,63.3,62.0,29.84,ESE,112,0.0,0.0,96,0.01,,,0.07,weatherlink.com 1.10,2013-05-29 05:24:00,
2013-05-29 01:40:00,62.9,62.0,29.84,ESE,110,0.0,1.0,96,0.00,,,0.07,weatherlink.com 1.10,2013-05-29 05:40:00,
2013-05-29 01:55:00,62.8,62.0,29.84,SE,127,0.0,1.0,97,0.00,,,0.07,weatherlink.com 1.10,2013-05-29 05:55:00,
2013-05-29 02:10:00,62.4,62.0,29.85,ESE,106,1.0,1.0,97,0.00,,,0.07,weatherlink.com 1.10,2013-05-29 06:10:00,
2013-05-29 02:25:00,62.4,61.0,29.86,ENE,72,0.0,3.0,96,0.00,,,0.07,weatherlink.com 1.10,2013-05-29 06:25:00,
2013-05-29 02:40:00,62.3,61.0,29.85,NE,51,0.0,2.0,96,0.00,,,0.07,weatherlink.com 1.10,2013-05-29 06:40:00,
2013-05-29 02:54:00,62.1,61.0,29.84,SE,134,0.0,1.0,96,0.00,,,0.07,weatherlink.com 1.10,2013-05-29 06:54:00,
2013-05-29 03:09:00,62.1,61.0,29.84,WSW,245,0.0,2.0,96,0.00,,,0.07,weatherlink.com 1.10,2013-05-29 07:09:00,
2013-05-29 03:24:00,62.3,61.0,29.83,ESE,122,0.0,2.0,96,0.00,,,0.07,weatherlink.com 1.10,2013-05-29 07:24:00,
2013-05-29 03:40:00,63.0,62.0,29.84,WSW,240,2.0,6.0,95,0.00,,,0.07,weatherlink.com 1.10,2013-05-29 07:40:00,
2013-05-29 03:55:00,63.8,62.0,29.84,South,186,2.0,3.0,94,0.00,,,0.07,weatherlink.com 1.10,2013-05-29 07:55:00,
2013-05-29 04:10:00,64.1,62.0,29.84,ESE,115,1.0,2.0,94,0.00,,,0.07,weatherlink.com 1.10,2013-05-29 08:10:00,
2013-05-29 04:25:00,65.0,63.0,29.85,SE,131,1.0,4.0,92,0.00,,,0.07,weatherlink.com 1.10,2013-05-29 08:25:00,
2013-05-29 04:40:00,66.0,63.0,29.86,East,86,0.0,4.0,91,0.00,,,0.07,weatherlink.com 1.10,2013-05-29 08:40:00,
2013-05-29 04:55:00,66.4,64.0,29.86,East,89,1.0,7.0,91,0.00,,,0.07,weatherlink.com 1.10,2013-05-29 08:55:00,
2013-05-29 05:10:00,66.9,64.0,29.86,West,276,3.0,7.0,90,0.00,,,0.07,weatherlink.com 1.10,2013-05-29 09:10:00,
2013-05-29 05:25:00,67.3,64.0,29.86,ENE,65,1.0,7.0,90,0.01,,,0.08,weatherlink.com 1.10,2013-05-29 09:25:00,
2013-05-29 05:40:00,66.7,64.0,29.84,SSE,167,0.0,3.0,92,0.02,,,0.09,weatherlink.com 1.10,2013-05-29 09:40:00,
2013-05-29 05:55:00,66.4,64.0,29.84,SSW,195,2.0,2.0,93,0.02,,,0.09,weatherlink.com 1.10,2013-05-29 09:55:00,
2013-05-29 06:10:00,65.9,65.0,29.85,East,94,3.0,5.0,95,0.02,,,0.09,weatherlink.com 1.10,2013-05-29 10:10:00,
2013-05-29 06:25:00,65.9,65.0,29.87,WSW,245,0.0,5.0,95,0.01,,,0.09,weatherlink.com 1.10,2013-05-29 10:25:00,
2013-05-29 06:40:00,65.8,64.0,29.87,SE,144,2.0,5.0,95,0.00,,,0.09,weatherlink.com 1.10,2013-05-29 10:40:00,
2013-05-29 06:55:00,65.6,64.0,29.88,ENE,72,0.0,3.0,95,0.00,,,0.09,weatherlink.com 1.10,2013-05-29 10:55:00,
2013-05-29 07:10:00,65.3,64.0,29.89,ENE,72,0.0,0.0,96,0.00,,,0.09,weatherlink.com 1.10,2013-05-29 11:10:00,
2013-05-29 07:25:00,65.4,64.0,29.90,SE,127,0.0,1.0,96,0.00,,,0.09,weatherlink.com 1.10,2013-05-29 11:25:00,
2013-05-29 07:40:00,65.7,65.0,29.92,WSW,252,0.0,6.0,96,0.00,,,0.09,weatherlink.com 1.10,2013-05-29 11:40:00,
2013-05-29 07:55:00,66.0,65.0,29.92,South,179,0.0,3.0,96,0.00,,,0.09,weatherlink.com 1.10,2013-05-29 11:55:00,
2013-05-29 08:10:00,66.6,65.0,29.92,WSW,243,2.0,4.0,95,0.00,,,0.09,weatherlink.com 1.10,2013-05-29 12:10:00,
2013-05-29 08:25:00,67.7,66.0,29.92,East,87,1.0,4.0,93,0.00,,,0.09,weatherlink.com 1.10,2013-05-29 12:25:00,
2013-05-29 08:40:00,68.3,66.0,29.92,NNW,348,1.0,8.0,91,0.00,,,0.09,weatherlink.com 1.10,2013-05-29 12:40:00,
2013-05-29 08:55:00,67.9,65.0,29.93,NW,311,0.0,4.0,90,0.00,,,0.09,weatherlink.com 1.10,2013-05-29 12:55:00,
2013-05-29 09:10:00,67.3,65.0,29.92,East,82,1.0,2.0,91,0.00,,,0.09,weatherlink.com 1.10,2013-05-29 13:10:00,
2013-05-29 09:25:00,67.0,64.0,29.91,WSW,246,2.0,2.0,90,0.00,,,0.09,weatherlink.com 1.10,2013-05-29 13:25:00,
2013-05-29 09:40:00,67.5,65.0,29.89,SE,130,1.0,3.0,90,0.00,,,0.09,weatherlink.com 1.10,2013-05-29 13:40:00,
2013-05-29 09:55:00,67.9,64.0,29.91,South,180,1.0,5.0,88,0.00,,,0.09,weatherlink.com 1.10,2013-05-29 13:55:00,
2013-05-29 10:10:00,68.1,64.0,29.94,SSW,197,1.0,6.0,86,0.00,,,0.09,weatherlink.com 1.10,2013-05-29 14:10:00,
2013-05-29 10:25:00,68.6,64.0,29.95,West,278,1.0,3.0,84,0.00,,,0.09,weatherlink.com 1.10,2013-05-29 14:25:00,
2013-05-29 10:40:00,69.9,65.0,29.95,WNW,293,3.0,5.0,83,0.00,,,0.09,weatherlink.com 1.10,2013-05-29 14:40:00,
2013-05-29 11:10:00,71.8,64.0,29.97,SSE,149,3.0,7.0,77,0.00,,,0.09,weatherlink.com 1.10,2013-05-29 15:10:00,
2013-05-29 11:25:00,73.6,64.0,29.97,NNE,27,2.0,6.0,73,0.00,,,0.09,weatherlink.com 1.10,2013-05-29 15:25:00,
2013-05-29 11:41:00,74.9,65.0,29.97,NW,322,1.0,4.0,71,0.00,,,0.09,weatherlink.com 1.10,2013-05-29 15:41:00,
2013-05-29 11:56:00,75.9,64.0,29.97,NNW,332,1.0,4.0,66,0.00,,,0.09,weatherlink.com 1.10,2013-05-29 15:56:00,
2013-05-29 12:11:00,76.2,64.0,29.98,ESE,115,3.0,4.0,67,0.00,,,0.09,weatherlink.com 1.10,2013-05-29 16:11:00,
2013-05-29 12:26:00,76.5,66.0,29.98,NNW,340,0.0,5.0,69,0.00,,,0.09,weatherlink.com 1.10,2013-05-29 16:26:00,
2013-05-29 12:41:00,77.1,63.0,29.98,East,99,4.0,6.0,63,0.00,,,0.09,weatherlink.com 1.10,2013-05-29 16:41:00,
2013-05-29 12:56:00,77.6,65.0,29.98,West,269,1.0,5.0,65,0.00,,,0.09,weatherlink.com 1.10,2013-05-29 16:56:00,
2013-05-29 13:11:00,75.7,62.0,29.99,East,82,1.0,5.0,63,0.00,,,0.09,weatherlink.com 1.10,2013-05-29 17:11:00,
2013-05-29 13:26:00,74.7,63.0,29.99,SW,224,0.0,4.0,66,0.00,,,0.09,weatherlink.com 1.10,2013-05-29 17:26:00,
2013-05-29 13:41:00,74.2,63.0,29.99,SW,229,1.0,4.0,67,0.00,,,0.09,weatherlink.com 1.10,2013-05-29 17:41:00,
2013-05-29 13:56:00,73.9,64.0,29.99,ESE,103,0.0,2.0,70,0.00,,,0.09,weatherlink.com 1.10,2013-05-29 17:56:00,
2013-05-29 14:11:00,74.0,64.0,29.99,ENE,72,1.0,2.0,71,0.00,,,0.09,weatherlink.com 1.10,2013-05-29 18:11:00,
2013-05-29 14:26:00,73.6,64.0,29.99,ENE,77,1.0,2.0,72,0.00,,,0.09,weatherlink.com 1.10,2013-05-29 18:26:00,
2013-05-29 14:41:00,74.4,64.0,29.99,SSW,207,1.0,3.0,71,0.00,,,0.09,weatherlink.com 1.10,2013-05-29 18:41:00,
2013-05-29 14:56:00,74.8,64.0,29.99,WSW,238,1.0,4.0,69,0.00,,,0.09,weatherlink.com 1.10,2013-05-29 18:56:00,
2013-05-29 15:11:00,74.2,63.0,29.99,ESE,105,0.0,5.0,69,0.00,,,0.09,weatherlink.com 1.10,2013-05-29 19:11:00,
2013-05-29 15:26:00,75.0,64.0,29.98,East,91,0.0,2.0,68,0.00,,,0.09,weatherlink.com 1.10,2013-05-29 19:26:00,
2013-05-29 15:41:00,75.9,65.0,29.98,ESE,114,3.0,5.0,68,0.00,,,0.09,weatherlink.com 1.10,2013-05-29 19:41:00,
2013-05-29 15:56:00,76.2,64.0,29.98,SW,224,1.0,3.0,67,0.00,,,0.09,weatherlink.com 1.10,2013-05-29 19:56:00,
2013-05-29 16:11:00,76.8,66.0,29.98,SE,141,2.0,4.0,69,0.00,,,0.09,weatherlink.com 1.10,2013-05-29 20:11:00,
2013-05-29 16:26:00,77.1,65.0,29.97,West,278,0.0,5.0,67,0.00,,,0.09,weatherlink.com 1.10,2013-05-29 20:26:00,
2013-05-29 16:41:00,77.4,66.0,29.97,SW,235,0.0,4.0,67,0.00,,,0.09,weatherlink.com 1.10,2013-05-29 20:41:00,
2013-05-29 16:56:00,77.3,67.0,29.97,East,84,0.0,3.0,70,0.00,,,0.09,weatherlink.com 1.10,2013-05-29 20:56:00,
2013-05-29 17:11:00,77.4,67.0,29.97,South,180,0.0,4.0,70,0.00,,,0.09,weatherlink.com 1.10,2013-05-29 21:11:00,
2013-05-29 17:26:00,77.3,67.0,29.97,WNW,284,2.0,2.0,71,0.00,,,0.09,weatherlink.com 1.10,2013-05-29 21:26:00,
2013-05-29 17:41:00,78.5,68.0,29.96,SE,132,1.0,5.0,71,0.00,,,0.09,weatherlink.com 1.10,2013-05-29 21:41:00,
2013-05-29 17:56:00,78.3,69.0,29.96,East,91,1.0,3.0,72,0.00,,,0.09,weatherlink.com 1.10,2013-05-29 21:56:00,
2013-05-29 18:11:00,78.1,69.0,29.96,West,280,0.0,3.0,73,0.00,,,0.09,weatherlink.com 1.10,2013-05-29 22:11:00,
2013-05-29 18:26:00,77.8,69.0,29.96,SW,221,2.0,3.0,75,0.00,,,0.09,weatherlink.com 1.10,2013-05-29 22:26:00,
2013-05-29 18:41:00,77.8,70.0,29.95,SSE,165,0.0,2.0,76,0.00,,,0.09,weatherlink.com 1.10,2013-05-29 22:41:00,
2013-05-29 18:56:00,77.0,70.0,29.94,ESE,120,0.0,1.0,78,0.00,,,0.09,weatherlink.com 1.10,2013-05-29 22:56:00,
2013-05-29 19:11:00,77.2,70.0,29.93,SSE,165,0.0,2.0,79,0.00,,,0.09,weatherlink.com 1.10,2013-05-29 23:11:00,
2013-05-29 19:26:00,77.7,70.0,29.93,West,263,1.0,2.0,78,0.00,,,0.09,weatherlink.com 1.10,2013-05-29 23:26:00,
2013-05-29 19:41:00,77.9,71.0,29.95,South,186,1.0,4.0,78,0.00,,,0.09,weatherlink.com 1.10,2013-05-29 23:41:00,
2013-05-29 20:11:00,74.4,70.0,29.94,SE,146,0.0,0.0,85,0.00,,,0.09,weatherlink.com 1.10,2013-05-30 00:11:00,
2013-05-29 20:26:00,72.9,70.0,29.94,SE,146,0.0,0.0,89,0.00,,,0.09,weatherlink.com 1.10,2013-05-30 00:26:00,
2013-05-29 20:41:00,72.0,70.0,29.94,SSE,147,0.0,0.0,92,0.00,,,0.09,weatherlink.com 1.10,2013-05-30 00:41:00,
2013-05-29 20:56:00,71.5,69.0,29.94,SSE,147,0.0,0.0,93,0.00,,,0.09,weatherlink.com 1.10,2013-05-30 00:56:00,
2013-05-29 21:11:00,70.8,69.0,29.94,SSE,147,0.0,0.0,93,0.00,,,0.09,weatherlink.com 1.10,2013-05-30 01:11:00,
2013-05-29 21:26:00,70.1,68.0,29.94,SE,146,0.0,0.0,94,0.00,,,0.09,weatherlink.com 1.10,2013-05-30 01:26:00,
2013-05-29 21:41:00,69.5,68.0,29.95,SSE,148,0.0,0.0,94,0.00,,,0.09,weatherlink.com 1.10,2013-05-30 01:41:00,
2013-05-29 21:56:00,69.0,68.0,29.95,SSE,148,0.0,0.0,95,0.00,,,0.09,weatherlink.com 1.10,2013-05-30 01:56:00,
2013-05-29 22:11:00,68.5,67.0,29.96,SSE,148,0.0,0.0,95,0.00,,,0.09,weatherlink.com 1.10,2013-05-30 02:11:00,
2013-05-29 22:26:00,68.1,67.0,29.96,SSE,147,0.0,0.0,96,0.00,,,0.09,weatherlink.com 1.10,2013-05-30 02:26:00,
2013-05-29 22:41:00,67.7,67.0,29.96,SSE,147,0.0,0.0,96,0.00,,,0.09,weatherlink.com 1.10,2013-05-30 02:41:00,
2013-05-29 22:56:00,67.4,66.0,29.96,SE,146,0.0,0.0,96,0.00,,,0.09,weatherlink.com 1.10,2013-05-30 02:56:00,
2013-05-29 23:11:00,67.1,66.0,29.96,SE,146,0.0,0.0,97,0.00,,,0.09,weatherlink.com 1.10,2013-05-30 03:11:00,
2013-05-29 23:26:00,66.7,66.0,29.96,SE,146,0.0,0.0,97,0.00,,,0.09,weatherlink.com 1.10,2013-05-30 03:26:00,
2013-05-29 23:41:00,66.4,66.0,29.97,SSE,147,0.0,0.0,97,0.00,,,0.09,weatherlink.com 1.10,2013-05-30 03:41:00,
2013-05-29 23:56:00,66.2,65.0,29.97,SE,146,0.0,0.0,97,0.00,,,0.09,weatherlink.com 1.10,2013-05-30 03:56:00,